sensor_id;sensor_type;location;lat;lon;timestamp;pressure;altitude;pressure_sealevel;temperature;humidity
43480;BME280;29067;35.492;-97.520;2022-08-06T00:01:59;96872.09;;;37.36;21.94
43480;BME280;29067;35.492;-97.520;2022-08-06T00:04:28;96874.37;;;37.80;21.42
43480;BME280;29067;35.492;-97.520;2022-08-06T00:06:56;96872.51;;;36.36;22.74
43480;BME280;29067;35.492;-97.520;2022-08-06T00:09:24;96873.16;;;37.91;21.92
43480;BME280;29067;35.492;-97.520;2022-08-06T00:11:52;96872.65;;;37.59;21.86
43480;BME280;29067;35.492;-97.520;2022-08-06T00:14:21;96873.32;;;36.04;22.70
43480;BME280;29067;35.492;-97.520;2022-08-06T00:16:49;96878.90;;;35.97;22.99
43480;BME280;29067;35.492;-97.520;2022-08-06T00:19:17;96875.59;;;36.89;22.65
43480;BME280;29067;35.492;-97.520;2022-08-06T00:21:46;96877.72;;;37.00;22.35
43480;BME280;29067;35.492;-97.520;2022-08-06T00:24:14;96879.03;;;37.42;21.93
43480;BME280;29067;35.492;-97.520;2022-08-06T00:26:42;96879.93;;;36.99;21.91
43480;BME280;29067;35.492;-97.520;2022-08-06T00:29:10;96881.53;;;38.07;22.19
43480;BME280;29067;35.492;-97.520;2022-08-06T00:31:38;96886.89;;;36.17;22.81
43480;BME280;29067;35.492;-97.520;2022-08-06T00:34:07;96886.16;;;35.08;23.37
43480;BME280;29067;35.492;-97.520;2022-08-06T00:36:35;96894.03;;;35.06;23.40
43480;BME280;29067;35.492;-97.520;2022-08-06T00:39:05;96890.77;;;36.50;23.22
43480;BME280;29067;35.492;-97.520;2022-08-06T00:41:34;96890.54;;;36.61;23.41
43480;BME280;29067;35.492;-97.520;2022-08-06T00:44:03;96895.64;;;35.43;23.50
43480;BME280;29067;35.492;-97.520;2022-08-06T00:46:31;96898.07;;;34.45;24.37
43480;BME280;29067;35.492;-97.520;2022-08-06T00:49:00;96897.10;;;35.45;23.98
43480;BME280;29067;35.492;-97.520;2022-08-06T00:51:28;96897.06;;;35.11;24.16
43480;BME280;29067;35.492;-97.520;2022-08-06T00:53:56;96893.53;;;34.81;23.95
43480;BME280;29067;35.492;-97.520;2022-08-06T00:56:24;96896.64;;;35.31;24.28
43480;BME280;29067;35.492;-97.520;2022-08-06T00:58:52;96898.23;;;35.38;23.80
43480;BME280;29067;35.492;-97.520;2022-08-06T01:01:21;96899.42;;;35.77;23.88
43480;BME280;29067;35.492;-97.520;2022-08-06T01:03:49;96895.93;;;36.01;23.56
43480;BME280;29067;35.492;-97.520;2022-08-06T01:06:17;96902.89;;;35.67;23.80
43480;BME280;29067;35.492;-97.520;2022-08-06T01:08:46;96906.50;;;36.18;24.04
43480;BME280;29067;35.492;-97.520;2022-08-06T01:11:13;96906.15;;;35.58;24.32
43480;BME280;29067;35.492;-97.520;2022-08-06T01:13:41;96905.96;;;34.65;24.41
43480;BME280;29067;35.492;-97.520;2022-08-06T01:16:15;96908.83;;;35.76;24.11
43480;BME280;29067;35.492;-97.520;2022-08-06T01:18:54;96911.37;;;36.50;23.92
43480;BME280;29067;35.492;-97.520;2022-08-06T01:21:42;96912.92;;;36.18;24.12
43480;BME280;29067;35.492;-97.520;2022-08-06T01:24:33;96916.85;;;36.47;24.06
43480;BME280;29067;35.492;-97.520;2022-08-06T01:27:26;96921.38;;;34.35;25.07
43480;BME280;29067;35.492;-97.520;2022-08-06T01:30:02;96923.88;;;35.92;24.92
43480;BME280;29067;35.492;-97.520;2022-08-06T01:32:34;96923.33;;;35.79;24.71
43480;BME280;29067;35.492;-97.520;2022-08-06T01:35:07;96924.59;;;36.22;24.88
43480;BME280;29067;35.492;-97.520;2022-08-06T01:37:41;96932.27;;;36.15;24.88
43480;BME280;29067;35.492;-97.520;2022-08-06T01:40:14;96932.68;;;35.26;25.32
43480;BME280;29067;35.492;-97.520;2022-08-06T01:42:44;96934.23;;;35.82;25.10
43480;BME280;29067;35.492;-97.520;2022-08-06T01:45:15;96933.69;;;35.96;25.07
43480;BME280;29067;35.492;-97.520;2022-08-06T01:47:47;96938.63;;;36.85;24.72
43480;BME280;29067;35.492;-97.520;2022-08-06T01:50:16;96937.62;;;35.68;25.13
43480;BME280;29067;35.492;-97.520;2022-08-06T01:52:45;96932.17;;;35.33;25.32
43480;BME280;29067;35.492;-97.520;2022-08-06T01:55:16;96934.91;;;35.60;25.31
43480;BME280;29067;35.492;-97.520;2022-08-06T01:57:49;96933.25;;;35.73;25.15
43480;BME280;29067;35.492;-97.520;2022-08-06T02:00:19;96934.79;;;35.63;25.23
43480;BME280;29067;35.492;-97.520;2022-08-06T02:02:48;96942.59;;;34.83;25.72
43480;BME280;29067;35.492;-97.520;2022-08-06T02:05:20;96946.55;;;35.17;25.48
43480;BME280;29067;35.492;-97.520;2022-08-06T02:07:52;96951.32;;;35.91;25.31
43480;BME280;29067;35.492;-97.520;2022-08-06T02:10:22;96959.37;;;34.34;25.87
43480;BME280;29067;35.492;-97.520;2022-08-06T02:12:51;96956.16;;;36.63;24.73
43480;BME280;29067;35.492;-97.520;2022-08-06T02:15:23;96959.25;;;35.70;25.07
43480;BME280;29067;35.492;-97.520;2022-08-06T02:17:53;96964.74;;;35.32;25.35
43480;BME280;29067;35.492;-97.520;2022-08-06T02:20:25;96966.04;;;35.20;25.64
43480;BME280;29067;35.492;-97.520;2022-08-06T02:22:55;96969.82;;;34.60;25.45
43480;BME280;29067;35.492;-97.520;2022-08-06T02:25:24;96972.88;;;34.99;25.58
43480;BME280;29067;35.492;-97.520;2022-08-06T02:27:54;96973.52;;;34.42;25.61
43480;BME280;29067;35.492;-97.520;2022-08-06T02:30:25;96978.81;;;34.52;25.91
43480;BME280;29067;35.492;-97.520;2022-08-06T02:32:53;96984.56;;;34.08;26.40
43480;BME280;29067;35.492;-97.520;2022-08-06T02:35:20;96994.92;;;33.54;26.42
43480;BME280;29067;35.492;-97.520;2022-08-06T02:37:51;96994.41;;;34.48;26.13
43480;BME280;29067;35.492;-97.520;2022-08-06T02:40:24;97001.95;;;34.13;26.48
43480;BME280;29067;35.492;-97.520;2022-08-06T02:43:01;97001.18;;;34.45;26.12
43480;BME280;29067;35.492;-97.520;2022-08-06T02:45:37;97006.93;;;33.52;26.59
43480;BME280;29067;35.492;-97.520;2022-08-06T02:48:15;97009.28;;;33.03;26.95
43480;BME280;29067;35.492;-97.520;2022-08-06T02:50:48;97010.49;;;33.29;27.08
43480;BME280;29067;35.492;-97.520;2022-08-06T02:53:18;97012.92;;;32.48;27.48
43480;BME280;29067;35.492;-97.520;2022-08-06T02:55:51;97011.11;;;32.39;27.79
43480;BME280;29067;35.492;-97.520;2022-08-06T02:58:25;97017.87;;;32.88;27.29
43480;BME280;29067;35.492;-97.520;2022-08-06T03:00:54;97019.73;;;32.19;27.74
43480;BME280;29067;35.492;-97.520;2022-08-06T03:03:24;97025.54;;;33.32;27.41
43480;BME280;29067;35.492;-97.520;2022-08-06T03:05:53;97027.30;;;33.43;26.79
43480;BME280;29067;35.492;-97.520;2022-08-06T03:08:25;97030.52;;;33.18;27.43
43480;BME280;29067;35.492;-97.520;2022-08-06T03:10:55;97032.03;;;33.47;27.22
43480;BME280;29067;35.492;-97.520;2022-08-06T03:13:23;97041.21;;;32.81;27.58
43480;BME280;29067;35.492;-97.520;2022-08-06T03:15:52;97038.31;;;33.74;27.05
43480;BME280;29067;35.492;-97.520;2022-08-06T03:18:22;97038.22;;;33.65;26.86
43480;BME280;29067;35.492;-97.520;2022-08-06T03:20:51;97042.10;;;32.42;27.55
43480;BME280;29067;35.492;-97.520;2022-08-06T03:23:20;97042.14;;;33.57;27.05
43480;BME280;29067;35.492;-97.520;2022-08-06T03:25:50;97047.58;;;31.91;27.73
43480;BME280;29067;35.492;-97.520;2022-08-06T03:28:19;97041.75;;;33.74;26.99
43480;BME280;29067;35.492;-97.520;2022-08-06T03:30:48;97042.92;;;33.41;26.80
43480;BME280;29067;35.492;-97.520;2022-08-06T03:33:16;97044.82;;;32.72;27.64
43480;BME280;29067;35.492;-97.520;2022-08-06T03:35:46;97044.48;;;31.70;28.28
43480;BME280;29067;35.492;-97.520;2022-08-06T03:38:17;97040.27;;;32.65;27.68
43480;BME280;29067;35.492;-97.520;2022-08-06T03:40:45;97042.62;;;33.32;27.31
43480;BME280;29067;35.492;-97.520;2022-08-06T03:43:14;97041.52;;;31.41;28.60
43480;BME280;29067;35.492;-97.520;2022-08-06T03:45:48;97042.57;;;32.49;28.21
43480;BME280;29067;35.492;-97.520;2022-08-06T03:48:23;97038.10;;;32.74;28.01
43480;BME280;29067;35.492;-97.520;2022-08-06T03:50:53;97040.12;;;31.47;29.04
43480;BME280;29067;35.492;-97.520;2022-08-06T03:53:24;97044.02;;;31.57;28.64
43480;BME280;29067;35.492;-97.520;2022-08-06T03:55:55;97037.72;;;33.57;27.49
43480;BME280;29067;35.492;-97.520;2022-08-06T03:58:26;97046.87;;;32.61;27.94
43480;BME280;29067;35.492;-97.520;2022-08-06T04:00:59;97045.81;;;31.57;28.51
43480;BME280;29067;35.492;-97.520;2022-08-06T04:03:29;97047.27;;;32.39;28.43
43480;BME280;29067;35.492;-97.520;2022-08-06T04:05:58;97043.16;;;31.29;28.57
43480;BME280;29067;35.492;-97.520;2022-08-06T04:08:26;97041.89;;;32.59;28.02
43480;BME280;29067;35.492;-97.520;2022-08-06T04:10:55;97041.46;;;31.99;28.40
43480;BME280;29067;35.492;-97.520;2022-08-06T04:13:25;97044.86;;;31.51;28.26
43480;BME280;29067;35.492;-97.520;2022-08-06T04:15:54;97045.18;;;32.05;27.99
43480;BME280;29067;35.492;-97.520;2022-08-06T04:18:28;97046.25;;;32.68;27.58
43480;BME280;29067;35.492;-97.520;2022-08-06T04:21:02;97045.65;;;32.40;27.77
43480;BME280;29067;35.492;-97.520;2022-08-06T04:23:30;97048.03;;;32.18;28.20
43480;BME280;29067;35.492;-97.520;2022-08-06T04:26:02;97048.95;;;32.08;28.33
43480;BME280;29067;35.492;-97.520;2022-08-06T04:28:31;97046.30;;;32.88;27.84
43480;BME280;29067;35.492;-97.520;2022-08-06T04:31:01;97050.69;;;31.77;28.44
43480;BME280;29067;35.492;-97.520;2022-08-06T04:33:31;97051.80;;;32.00;28.12
43480;BME280;29067;35.492;-97.520;2022-08-06T04:36:02;97051.31;;;32.69;27.98
43480;BME280;29067;35.492;-97.520;2022-08-06T04:38:32;97053.82;;;32.79;28.03
43480;BME280;29067;35.492;-97.520;2022-08-06T04:41:01;97055.16;;;31.95;28.37
43480;BME280;29067;35.492;-97.520;2022-08-06T04:43:30;97056.68;;;32.40;28.27
43480;BME280;29067;35.492;-97.520;2022-08-06T04:45:58;97051.64;;;31.03;28.53
43480;BME280;29067;35.492;-97.520;2022-08-06T04:48:27;97048.99;;;32.35;28.02
43480;BME280;29067;35.492;-97.520;2022-08-06T04:50:56;97049.13;;;34.03;26.94
43480;BME280;29067;35.492;-97.520;2022-08-06T04:53:24;97051.59;;;32.35;27.82
43480;BME280;29067;35.492;-97.520;2022-08-06T04:55:53;97044.91;;;33.21;27.33
43480;BME280;29067;35.492;-97.520;2022-08-06T04:58:21;97043.60;;;33.04;27.49
43480;BME280;29067;35.492;-97.520;2022-08-06T05:00:49;97036.03;;;31.87;28.03
43480;BME280;29067;35.492;-97.520;2022-08-06T05:03:17;97037.02;;;32.85;27.80
43480;BME280;29067;35.492;-97.520;2022-08-06T05:05:50;97039.65;;;33.47;26.97
43480;BME280;29067;35.492;-97.520;2022-08-06T05:08:21;97036.48;;;32.52;27.22
43480;BME280;29067;35.492;-97.520;2022-08-06T05:10:54;97041.43;;;32.86;27.51
43480;BME280;29067;35.492;-97.520;2022-08-06T05:13:25;97040.79;;;33.75;27.50
43480;BME280;29067;35.492;-97.520;2022-08-06T05:15:57;97041.88;;;32.72;27.60
43480;BME280;29067;35.492;-97.520;2022-08-06T05:18:32;97040.38;;;32.60;27.35
43480;BME280;29067;35.492;-97.520;2022-08-06T05:21:01;97038.27;;;31.92;27.95
43480;BME280;29067;35.492;-97.520;2022-08-06T05:23:35;97039.27;;;31.98;27.76
43480;BME280;29067;35.492;-97.520;2022-08-06T05:26:05;97044.75;;;31.98;28.25
43480;BME280;29067;35.492;-97.520;2022-08-06T05:28:34;97042.33;;;31.40;28.50
43480;BME280;29067;35.492;-97.520;2022-08-06T05:31:06;97048.17;;;31.63;28.86
43480;BME280;29067;35.492;-97.520;2022-08-06T05:33:36;97052.41;;;31.97;28.20
43480;BME280;29067;35.492;-97.520;2022-08-06T05:36:06;97053.67;;;30.98;29.18
43480;BME280;29067;35.492;-97.520;2022-08-06T05:38:35;97057.64;;;29.94;29.46
43480;BME280;29067;35.492;-97.520;2022-08-06T05:41:05;97057.90;;;31.13;29.79
43480;BME280;29067;35.492;-97.520;2022-08-06T05:43:34;97056.83;;;31.93;29.07
43480;BME280;29067;35.492;-97.520;2022-08-06T05:46:07;97058.08;;;32.23;28.88
43480;BME280;29067;35.492;-97.520;2022-08-06T05:48:40;97056.84;;;30.65;29.79
43480;BME280;29067;35.492;-97.520;2022-08-06T05:51:11;97064.33;;;29.48;31.11
43480;BME280;29067;35.492;-97.520;2022-08-06T05:53:44;97061.03;;;30.60;30.78
43480;BME280;29067;35.492;-97.520;2022-08-06T05:56:18;97067.63;;;30.64;30.69
43480;BME280;29067;35.492;-97.520;2022-08-06T05:58:51;97064.25;;;31.03;30.28
43480;BME280;29067;35.492;-97.520;2022-08-06T06:01:21;97073.58;;;29.62;31.34
43480;BME280;29067;35.492;-97.520;2022-08-06T06:03:51;97074.46;;;29.63;32.32
43480;BME280;29067;35.492;-97.520;2022-08-06T06:06:21;97076.66;;;30.22;31.67
43480;BME280;29067;35.492;-97.520;2022-08-06T06:08:49;97079.60;;;29.75;32.73
43480;BME280;29067;35.492;-97.520;2022-08-06T06:11:17;97081.26;;;29.69;33.31
43480;BME280;29067;35.492;-97.520;2022-08-06T06:13:46;97081.20;;;28.29;34.71
43480;BME280;29067;35.492;-97.520;2022-08-06T06:16:23;97090.88;;;29.22;34.39
43480;BME280;29067;35.492;-97.520;2022-08-06T06:19:03;97087.90;;;29.31;34.29
43480;BME280;29067;35.492;-97.520;2022-08-06T06:21:45;97087.97;;;30.08;34.04
43480;BME280;29067;35.492;-97.520;2022-08-06T06:24:19;97086.86;;;29.17;34.66
43480;BME280;29067;35.492;-97.520;2022-08-06T06:26:55;97083.47;;;30.84;33.79
43480;BME280;29067;35.492;-97.520;2022-08-06T06:29:36;97090.97;;;28.78;35.79
43480;BME280;29067;35.492;-97.520;2022-08-06T06:32:13;97089.77;;;28.68;35.97
43480;BME280;29067;35.492;-97.520;2022-08-06T06:34:50;97085.42;;;28.89;35.83
43480;BME280;29067;35.492;-97.520;2022-08-06T06:37:26;97092.90;;;28.78;36.14
43480;BME280;29067;35.492;-97.520;2022-08-06T06:40:05;97096.37;;;29.59;35.66
43480;BME280;29067;35.492;-97.520;2022-08-06T06:42:42;97094.86;;;30.59;34.70
43480;BME280;29067;35.492;-97.520;2022-08-06T06:45:16;97095.28;;;29.98;35.20
43480;BME280;29067;35.492;-97.520;2022-08-06T06:48:02;97093.10;;;28.13;36.89
43480;BME280;29067;35.492;-97.520;2022-08-06T06:50:35;97097.09;;;28.50;36.65
43480;BME280;29067;35.492;-97.520;2022-08-06T06:53:09;97095.00;;;27.69;37.52
43480;BME280;29067;35.492;-97.520;2022-08-06T06:55:41;97101.56;;;27.97;37.29
43480;BME280;29067;35.492;-97.520;2022-08-06T06:58:16;97101.73;;;29.00;36.71
43480;BME280;29067;35.492;-97.520;2022-08-06T07:00:46;97093.75;;;28.62;37.24
43480;BME280;29067;35.492;-97.520;2022-08-06T07:03:17;97098.99;;;28.11;37.73
43480;BME280;29067;35.492;-97.520;2022-08-06T07:05:48;97093.26;;;28.07;37.74
43480;BME280;29067;35.492;-97.520;2022-08-06T07:08:19;97091.90;;;29.11;37.45
43480;BME280;29067;35.492;-97.520;2022-08-06T07:10:48;97092.51;;;28.86;37.57
43480;BME280;29067;35.492;-97.520;2022-08-06T07:13:17;97096.27;;;29.05;36.69
43480;BME280;29067;35.492;-97.520;2022-08-06T07:15:45;97102.68;;;28.62;37.96
43480;BME280;29067;35.492;-97.520;2022-08-06T07:18:16;97102.54;;;27.92;38.86
43480;BME280;29067;35.492;-97.520;2022-08-06T07:20:45;97101.50;;;28.80;37.72
43480;BME280;29067;35.492;-97.520;2022-08-06T07:23:15;97107.16;;;27.22;39.60
43480;BME280;29067;35.492;-97.520;2022-08-06T07:25:45;97106.47;;;27.46;39.54
43480;BME280;29067;35.492;-97.520;2022-08-06T07:28:15;97103.93;;;28.22;38.34
43480;BME280;29067;35.492;-97.520;2022-08-06T07:30:44;97106.69;;;28.64;38.45
43480;BME280;29067;35.492;-97.520;2022-08-06T07:33:12;97108.29;;;28.90;38.39
43480;BME280;29067;35.492;-97.520;2022-08-06T07:35:41;97104.05;;;29.73;37.34
43480;BME280;29067;35.492;-97.520;2022-08-06T07:38:14;97116.36;;;28.98;38.03
43480;BME280;29067;35.492;-97.520;2022-08-06T07:40:48;97113.73;;;28.32;38.62
43480;BME280;29067;35.492;-97.520;2022-08-06T07:43:19;97108.97;;;28.64;38.37
43480;BME280;29067;35.492;-97.520;2022-08-06T07:45:49;97109.82;;;28.05;38.90
43480;BME280;29067;35.492;-97.520;2022-08-06T07:48:24;97117.01;;;28.38;38.73
43480;BME280;29067;35.492;-97.520;2022-08-06T07:50:55;97116.33;;;28.03;39.16
43480;BME280;29067;35.492;-97.520;2022-08-06T07:53:25;97125.66;;;26.54;41.20
43480;BME280;29067;35.492;-97.520;2022-08-06T07:55:54;97122.95;;;26.87;40.55
43480;BME280;29067;35.492;-97.520;2022-08-06T07:58:23;97129.37;;;29.01;38.83
43480;BME280;29067;35.492;-97.520;2022-08-06T08:00:50;97129.40;;;28.20;39.53
43480;BME280;29067;35.492;-97.520;2022-08-06T08:03:20;97128.62;;;27.63;39.73
43480;BME280;29067;35.492;-97.520;2022-08-06T08:05:48;97119.86;;;27.96;40.36
43480;BME280;29067;35.492;-97.520;2022-08-06T08:08:17;97118.35;;;28.87;38.38
43480;BME280;29067;35.492;-97.520;2022-08-06T08:10:45;97122.31;;;28.41;38.95
43480;BME280;29067;35.492;-97.520;2022-08-06T08:13:14;97131.28;;;27.10;40.19
43480;BME280;29067;35.492;-97.520;2022-08-06T08:15:44;97136.47;;;27.77;39.53
43480;BME280;29067;35.492;-97.520;2022-08-06T08:18:12;97133.94;;;27.58;39.82
43480;BME280;29067;35.492;-97.520;2022-08-06T08:20:42;97130.24;;;28.41;39.17
43480;BME280;29067;35.492;-97.520;2022-08-06T08:23:13;97137.92;;;28.53;38.92
43480;BME280;29067;35.492;-97.520;2022-08-06T08:25:41;97136.85;;;27.49;40.07
43480;BME280;29067;35.492;-97.520;2022-08-06T08:28:10;97137.59;;;27.37;40.18
43480;BME280;29067;35.492;-97.520;2022-08-06T08:30:39;97134.16;;;27.98;39.54
43480;BME280;29067;35.492;-97.520;2022-08-06T08:33:07;97134.88;;;27.53;39.85
43480;BME280;29067;35.492;-97.520;2022-08-06T08:35:34;97137.14;;;27.40;40.42
43480;BME280;29067;35.492;-97.520;2022-08-06T08:38:02;97131.92;;;27.65;40.66
43480;BME280;29067;35.492;-97.520;2022-08-06T08:40:31;97128.00;;;28.10;39.33
43480;BME280;29067;35.492;-97.520;2022-08-06T08:43:02;97134.63;;;27.59;40.33
43480;BME280;29067;35.492;-97.520;2022-08-06T08:45:32;97134.10;;;26.86;41.80
43480;BME280;29067;35.492;-97.520;2022-08-06T08:48:01;97136.59;;;25.70;42.55
43480;BME280;29067;35.492;-97.520;2022-08-06T08:50:30;97132.50;;;26.81;42.48
43480;BME280;29067;35.492;-97.520;2022-08-06T08:53:02;97137.43;;;27.70;40.49
43480;BME280;29067;35.492;-97.520;2022-08-06T08:55:31;97134.50;;;27.42;41.27
43480;BME280;29067;35.492;-97.520;2022-08-06T08:57:59;97145.23;;;25.94;43.13
43480;BME280;29067;35.492;-97.520;2022-08-06T09:00:28;97141.28;;;26.64;42.31
43480;BME280;29067;35.492;-97.520;2022-08-06T09:02:57;97145.64;;;26.24;43.21
43480;BME280;29067;35.492;-97.520;2022-08-06T09:05:25;97137.57;;;26.76;42.29
43480;BME280;29067;35.492;-97.520;2022-08-06T09:07:54;97140.31;;;25.83;44.02
43480;BME280;29067;35.492;-97.520;2022-08-06T09:10:22;97144.46;;;26.09;43.84
43480;BME280;29067;35.492;-97.520;2022-08-06T09:12:50;97135.92;;;27.84;41.93
43480;BME280;29067;35.492;-97.520;2022-08-06T09:15:18;97134.92;;;28.01;41.16
43480;BME280;29067;35.492;-97.520;2022-08-06T09:17:47;97139.92;;;27.82;40.75
43480;BME280;29067;35.492;-97.520;2022-08-06T09:20:15;97138.84;;;27.47;41.66
43480;BME280;29067;35.492;-97.520;2022-08-06T09:22:44;97139.32;;;26.92;42.74
43480;BME280;29067;35.492;-97.520;2022-08-06T09:25:35;97139.50;;;27.37;42.51
43480;BME280;29067;35.492;-97.520;2022-08-06T09:28:03;97141.12;;;26.48;43.41
43480;BME280;29067;35.492;-97.520;2022-08-06T09:30:31;97149.36;;;25.97;44.21
43480;BME280;29067;35.492;-97.520;2022-08-06T09:32:59;97143.00;;;27.09;42.93
43480;BME280;29067;35.492;-97.520;2022-08-06T09:35:28;97142.68;;;27.57;41.85
43480;BME280;29067;35.492;-97.520;2022-08-06T09:38:01;97143.30;;;26.53;43.72
43480;BME280;29067;35.492;-97.520;2022-08-06T09:40:30;97142.24;;;27.10;43.19
43480;BME280;29067;35.492;-97.520;2022-08-06T09:42:58;97143.46;;;26.61;43.68
43480;BME280;29067;35.492;-97.520;2022-08-06T09:45:26;97141.91;;;27.60;42.38
43480;BME280;29067;35.492;-97.520;2022-08-06T09:48:03;97153.12;;;25.66;45.09
43480;BME280;29067;35.492;-97.520;2022-08-06T09:50:38;97153.74;;;27.46;42.77
43480;BME280;29067;35.492;-97.520;2022-08-06T09:53:06;97160.84;;;25.98;44.64
43480;BME280;29067;35.492;-97.520;2022-08-06T09:55:34;97165.45;;;25.59;45.53
43480;BME280;29067;35.492;-97.520;2022-08-06T09:58:03;97171.99;;;25.33;46.39
43480;BME280;29067;35.492;-97.520;2022-08-06T10:00:33;97171.05;;;25.27;46.04
43480;BME280;29067;35.492;-97.520;2022-08-06T10:03:04;97174.36;;;26.37;45.91
43480;BME280;29067;35.492;-97.520;2022-08-06T10:05:33;97174.04;;;25.90;45.96
43480;BME280;29067;35.492;-97.520;2022-08-06T10:08:05;97173.84;;;26.86;44.13
43480;BME280;29067;35.492;-97.520;2022-08-06T10:10:43;97175.74;;;27.63;42.70
43480;BME280;29067;35.492;-97.520;2022-08-06T10:13:16;97184.02;;;27.10;43.24
43480;BME280;29067;35.492;-97.520;2022-08-06T10:15:45;97193.54;;;26.28;44.98
43480;BME280;29067;35.492;-97.520;2022-08-06T10:18:30;97188.81;;;27.30;43.72
43480;BME280;29067;35.492;-97.520;2022-08-06T10:21:04;97193.78;;;26.14;44.34
43480;BME280;29067;35.492;-97.520;2022-08-06T10:23:33;97191.03;;;27.11;43.28
43480;BME280;29067;35.492;-97.520;2022-08-06T10:26:04;97193.08;;;26.98;43.47
43480;BME280;29067;35.492;-97.520;2022-08-06T10:28:34;97207.37;;;25.92;45.38
43480;BME280;29067;35.492;-97.520;2022-08-06T10:31:05;97211.25;;;26.17;45.24
43480;BME280;29067;35.492;-97.520;2022-08-06T10:33:39;97206.56;;;26.02;45.33
43480;BME280;29067;35.492;-97.520;2022-08-06T10:36:11;97210.71;;;25.29;46.48
43480;BME280;29067;35.492;-97.520;2022-08-06T10:38:43;97213.39;;;25.19;46.90
43480;BME280;29067;35.492;-97.520;2022-08-06T10:41:12;97212.04;;;26.56;45.55
43480;BME280;29067;35.492;-97.520;2022-08-06T10:43:41;97211.59;;;26.92;44.47
43480;BME280;29067;35.492;-97.520;2022-08-06T10:46:11;97208.52;;;26.24;45.57
43480;BME280;29067;35.492;-97.520;2022-08-06T10:48:41;97215.04;;;25.00;47.27
43480;BME280;29067;35.492;-97.520;2022-08-06T10:51:11;97219.57;;;25.74;47.23
43480;BME280;29067;35.492;-97.520;2022-08-06T10:53:43;97221.85;;;25.50;48.33
43480;BME280;29067;35.492;-97.520;2022-08-06T10:56:13;97219.21;;;25.48;49.17
43480;BME280;29067;35.492;-97.520;2022-08-06T10:58:41;97222.24;;;25.27;49.07
43480;BME280;29067;35.492;-97.520;2022-08-06T11:03:13;97229.75;;;24.69;50.06
43480;BME280;29067;35.492;-97.520;2022-08-06T11:05:43;97231.18;;;25.53;48.98
43480;BME280;29067;35.492;-97.520;2022-08-06T11:08:26;97238.46;;;25.99;47.02
43480;BME280;29067;35.492;-97.520;2022-08-06T11:11:07;97243.68;;;24.69;50.52
43480;BME280;29067;35.492;-97.520;2022-08-06T11:13:46;97243.13;;;26.19;47.49
43480;BME280;29067;35.492;-97.520;2022-08-06T11:16:23;97242.80;;;25.27;48.77
43480;BME280;29067;35.492;-97.520;2022-08-06T11:19:00;97241.81;;;25.32;49.95
43480;BME280;29067;35.492;-97.520;2022-08-06T11:21:38;97242.67;;;25.57;49.59
43480;BME280;29067;35.492;-97.520;2022-08-06T11:24:07;97240.84;;;24.32;52.94
43480;BME280;29067;35.492;-97.520;2022-08-06T11:26:37;97233.28;;;24.89;51.02
43480;BME280;29067;35.492;-97.520;2022-08-06T11:29:06;97239.52;;;23.20;54.39
43480;BME280;29067;35.492;-97.520;2022-08-06T11:31:37;97245.23;;;23.83;53.64
43480;BME280;29067;35.492;-97.520;2022-08-06T11:34:08;97251.95;;;23.55;54.30
43480;BME280;29067;35.492;-97.520;2022-08-06T11:36:46;97256.76;;;24.86;52.58
43480;BME280;29067;35.492;-97.520;2022-08-06T11:39:15;97260.30;;;25.36;51.90
43480;BME280;29067;35.492;-97.520;2022-08-06T11:41:49;97258.65;;;25.65;50.46
43480;BME280;29067;35.492;-97.520;2022-08-06T11:44:18;97278.25;;;24.99;52.56
43480;BME280;29067;35.492;-97.520;2022-08-06T11:46:48;97285.17;;;24.93;52.86
43480;BME280;29067;35.492;-97.520;2022-08-06T11:49:21;97289.38;;;24.39;54.15
43480;BME280;29067;35.492;-97.520;2022-08-06T11:51:52;97291.08;;;25.35;51.69
43480;BME280;29067;35.492;-97.520;2022-08-06T11:54:22;97305.28;;;25.08;52.77
43480;BME280;29067;35.492;-97.520;2022-08-06T11:57:24;97307.63;;;23.52;56.18
43480;BME280;29067;35.492;-97.520;2022-08-06T12:00:24;97314.44;;;25.06;53.33
43480;BME280;29067;35.492;-97.520;2022-08-06T12:02:55;97314.30;;;24.08;55.56
43480;BME280;29067;35.492;-97.520;2022-08-06T12:05:42;97317.60;;;25.78;52.21
43480;BME280;29067;35.492;-97.520;2022-08-06T12:08:18;97323.04;;;25.26;52.14
43480;BME280;29067;35.492;-97.520;2022-08-06T12:11:52;97327.95;;;24.67;54.42
43480;BME280;29067;35.492;-97.520;2022-08-06T12:14:52;97333.80;;;23.95;56.24
43480;BME280;29067;35.492;-97.520;2022-08-06T12:17:21;97327.83;;;24.35;55.44
43480;BME280;29067;35.492;-97.520;2022-08-06T12:19:50;97327.11;;;24.61;55.33
43480;BME280;29067;35.492;-97.520;2022-08-06T12:22:20;97334.24;;;24.48;55.82
43480;BME280;29067;35.492;-97.520;2022-08-06T12:24:50;97338.39;;;24.38;57.03
43480;BME280;29067;35.492;-97.520;2022-08-06T12:27:18;97343.24;;;24.13;57.96
43480;BME280;29067;35.492;-97.520;2022-08-06T12:29:46;97350.05;;;23.40;60.06
43480;BME280;29067;35.492;-97.520;2022-08-06T12:32:22;97350.42;;;24.30;58.06
43480;BME280;29067;35.492;-97.520;2022-08-06T12:34:52;97355.11;;;25.42;55.75
43480;BME280;29067;35.492;-97.520;2022-08-06T12:37:32;97360.64;;;25.08;55.36
43480;BME280;29067;35.492;-97.520;2022-08-06T12:40:00;97361.46;;;24.99;55.73
43480;BME280;29067;35.492;-97.520;2022-08-06T12:42:28;97360.34;;;25.42;54.06
43480;BME280;29067;35.492;-97.520;2022-08-06T12:44:57;97365.78;;;25.46;53.68
43480;BME280;29067;35.492;-97.520;2022-08-06T12:47:25;97366.17;;;26.20;52.34
43480;BME280;29067;35.492;-97.520;2022-08-06T12:49:53;97371.48;;;25.52;53.56
43480;BME280;29067;35.492;-97.520;2022-08-06T12:52:22;97372.11;;;26.58;51.98
43480;BME280;29067;35.492;-97.520;2022-08-06T12:54:49;97368.97;;;25.32;54.13
43480;BME280;29067;35.492;-97.520;2022-08-06T12:57:21;97375.74;;;24.66;54.98
43480;BME280;29067;35.492;-97.520;2022-08-06T12:59:50;97375.10;;;25.32;54.08
43480;BME280;29067;35.492;-97.520;2022-08-06T13:02:19;97373.07;;;25.13;54.26
43480;BME280;29067;35.492;-97.520;2022-08-06T13:04:51;97375.07;;;25.10;54.99